createdAt,value
2023-04-26T00:00:12.146Z,2.70
2023-04-26T00:01:12.083Z,2.50
2023-04-26T00:02:12.080Z,2.60
2023-04-26T00:03:12.156Z,2.40
2023-04-26T00:04:12.278Z,2.50
2023-04-26T00:05:12.235Z,2.80
2023-04-26T00:06:12.080Z,2.60
2023-04-26T00:07:12.019Z,2.50
2023-04-26T00:08:12.161Z,2.30
2023-04-26T00:09:12.013Z,2.30
2023-04-26T00:10:12.017Z,2.60
2023-04-26T00:11:11.993Z,2.40
2023-04-26T00:12:11.986Z,2.60
2023-04-26T00:13:12.001Z,2.70
2023-04-26T00:14:11.981Z,2.80
2023-04-26T00:15:11.949Z,2.50
2023-04-26T00:16:12.009Z,2.40
2023-04-26T00:17:11.918Z,2.60
2023-04-26T00:18:11.944Z,2.80
2023-04-26T00:19:11.893Z,2.80
2023-04-26T00:20:11.931Z,3.20
2023-04-26T00:21:11.878Z,3.10
2023-04-26T00:22:11.853Z,2.60
2023-04-26T00:23:11.857Z,2.50
2023-04-26T00:24:12.019Z,2.40
2023-04-26T00:25:11.827Z,2.80
2023-04-26T00:26:11.882Z,2.50
2023-04-26T00:27:11.794Z,3.10
2023-04-26T00:28:11.793Z,2.50
2023-04-26T00:29:11.779Z,2.70
2023-04-26T00:30:11.872Z,3.10
2023-04-26T00:31:11.789Z,2.80
2023-04-26T00:32:11.896Z,2.50
2023-04-26T00:33:11.732Z,3.00
2023-04-26T00:34:11.736Z,2.80
2023-04-26T00:35:11.729Z,3.00
2023-04-26T00:36:11.724Z,3.00
2023-04-26T00:37:11.716Z,3.10
2023-04-26T00:38:11.683Z,2.80
2023-04-26T00:39:11.670Z,3.10
2023-04-26T00:40:11.719Z,3.20
2023-04-26T00:41:11.659Z,2.80
2023-04-26T00:42:11.839Z,2.70
2023-04-26T00:43:11.626Z,3.00
2023-04-26T00:44:11.625Z,2.90
2023-04-26T00:45:11.649Z,2.90
2023-04-26T00:46:11.683Z,3.50
2023-04-26T00:47:11.593Z,3.30
2023-04-26T00:48:11.784Z,3.10
2023-04-26T00:49:11.570Z,3.10
2023-04-26T00:50:11.644Z,3.10
2023-04-26T00:51:11.550Z,3.40
2023-04-26T00:52:11.649Z,3.30
2023-04-26T00:53:11.523Z,3.30
2023-04-26T00:54:11.551Z,3.50
2023-04-26T00:55:11.503Z,3.50
2023-04-26T00:56:11.558Z,3.30
2023-04-26T00:57:11.483Z,3.50
2023-04-26T00:58:11.477Z,3.00
2023-04-26T00:59:11.473Z,3.80
2023-04-26T01:00:11.521Z,3.30
2023-04-26T01:01:11.483Z,3.40
2023-04-26T01:02:11.564Z,3.70
2023-04-26T01:03:11.695Z,3.30
2023-04-26T01:04:11.573Z,3.30
2023-04-26T01:05:11.443Z,2.80
2023-04-26T01:06:11.536Z,3.50
2023-04-26T01:07:11.404Z,3.20
2023-04-26T01:08:11.391Z,3.20
2023-04-26T01:09:11.368Z,3.00
2023-04-26T01:10:11.357Z,2.60
2023-04-26T01:11:11.338Z,3.10
2023-04-26T01:12:11.400Z,3.10
2023-04-26T01:13:11.312Z,3.00
2023-04-26T01:14:11.398Z,2.90
2023-04-26T01:15:11.299Z,3.40
2023-04-26T01:16:11.343Z,3.10
2023-04-26T01:17:11.398Z,3.20
2023-04-26T01:18:11.433Z,3.00
2023-04-26T01:19:11.258Z,3.20
2023-04-26T01:20:11.321Z,3.60
2023-04-26T01:21:11.229Z,3.30
2023-04-26T01:22:11.611Z,3.00
2023-04-26T01:23:11.391Z,3.50
2023-04-26T01:24:11.193Z,3.40
2023-04-26T01:25:11.237Z,3.40
2023-04-26T01:26:11.283Z,3.40
2023-04-26T01:27:11.192Z,3.00
2023-04-26T01:28:11.197Z,3.40
2023-04-26T01:29:11.175Z,3.10
2023-04-26T01:30:11.135Z,3.10
2023-04-26T01:31:11.243Z,3.30
2023-04-26T01:32:11.204Z,3.10
2023-04-26T01:33:11.180Z,3.10
2023-04-26T01:34:11.150Z,3.50
2023-04-26T01:35:11.088Z,2.70
2023-04-26T01:36:11.069Z,3.30
2023-04-26T01:37:11.072Z,3.20
2023-04-26T01:38:11.067Z,3.30
2023-04-26T01:39:11.050Z,3.70
2023-04-26T01:40:11.048Z,3.00
2023-04-26T01:41:11.018Z,3.50
2023-04-26T01:42:11.039Z,3.60
2023-04-26T01:43:11.006Z,2.80
2023-04-26T01:44:11.029Z,3.20
2023-04-26T01:45:10.991Z,3.30
2023-04-26T01:46:11.009Z,3.20
2023-04-26T01:47:10.959Z,3.10
2023-04-26T01:48:11.128Z,3.10
2023-04-26T01:49:10.983Z,3.10
2023-04-26T01:50:10.928Z,3.20
2023-04-26T01:51:10.921Z,3.40
2023-04-26T01:52:10.959Z,2.90
2023-04-26T01:53:11.035Z,3.20
2023-04-26T01:54:10.873Z,3.10
2023-04-26T01:55:10.911Z,3.60
2023-04-26T01:56:10.917Z,3.20
2023-04-26T01:57:10.860Z,3.30
2023-04-26T01:58:10.875Z,3.60
2023-04-26T01:59:10.827Z,3.10
2023-04-26T02:00:10.905Z,3.30
2023-04-26T02:01:10.865Z,4.10
2023-04-26T02:02:10.974Z,3.40
2023-04-26T02:03:10.916Z,3.20
2023-04-26T02:04:10.798Z,3.40
2023-04-26T02:05:10.815Z,3.80
2023-04-26T02:06:10.784Z,3.70
2023-04-26T02:07:10.753Z,3.90
2023-04-26T02:08:10.830Z,3.70
2023-04-26T02:09:10.731Z,4.00
2023-04-26T02:10:10.702Z,3.60
2023-04-26T02:11:10.738Z,4.10
2023-04-26T02:12:10.766Z,3.60
2023-04-26T02:13:10.730Z,4.00
2023-04-26T02:14:10.737Z,4.10
2023-04-26T02:15:10.670Z,3.90
2023-04-26T02:16:10.908Z,4.40
2023-04-26T02:17:10.738Z,4.30
2023-04-26T02:18:10.651Z,3.80
2023-04-26T02:19:10.623Z,3.70
2023-04-26T02:20:10.617Z,3.60
2023-04-26T02:21:10.607Z,3.90
2023-04-26T02:22:10.742Z,4.30
2023-04-26T02:23:10.581Z,3.90
2023-04-26T02:24:10.664Z,4.00
2023-04-26T02:25:10.574Z,3.80
2023-04-26T02:26:10.576Z,3.40
2023-04-26T02:27:10.570Z,3.80
2023-04-26T02:28:10.610Z,4.30
2023-04-26T02:29:10.514Z,3.40
2023-04-26T02:30:10.523Z,3.50
2023-04-26T02:31:10.569Z,4.00
2023-04-26T02:32:10.652Z,3.50
2023-04-26T02:33:10.599Z,3.30
2023-04-26T02:34:10.475Z,4.00
2023-04-26T02:35:10.460Z,3.90
2023-04-26T02:36:10.461Z,4.00
2023-04-26T02:37:10.454Z,4.50
2023-04-26T02:38:10.498Z,4.10
2023-04-26T02:39:10.426Z,4.40
2023-04-26T02:40:10.455Z,4.10
2023-04-26T02:41:10.418Z,4.60
2023-04-26T02:42:10.535Z,4.10
2023-04-26T02:43:10.378Z,4.60
2023-04-26T02:44:10.382Z,4.30
2023-04-26T02:45:10.374Z,4.70
2023-04-26T02:46:10.377Z,4.40
2023-04-26T02:47:10.462Z,4.00
2023-04-26T02:48:10.377Z,4.20
2023-04-26T02:49:10.306Z,5.10
2023-04-26T02:50:10.307Z,4.90
2023-04-26T02:51:10.315Z,4.80
2023-04-26T02:52:10.340Z,4.90
2023-04-26T02:53:10.292Z,5.20
2023-04-26T02:54:10.282Z,5.50
2023-04-26T02:55:10.265Z,4.90
2023-04-26T02:56:10.305Z,5.40
2023-04-26T02:57:10.243Z,5.90
2023-04-26T02:58:10.267Z,5.20
2023-04-26T02:59:10.199Z,5.30
2023-04-26T03:00:10.254Z,5.80
2023-04-26T03:01:10.207Z,5.60
2023-04-26T03:02:10.526Z,5.50
2023-04-26T03:03:10.289Z,5.50
2023-04-26T03:04:10.251Z,5.40
2023-04-26T03:05:10.174Z,5.60
2023-04-26T03:06:10.139Z,6.00
2023-04-26T03:07:10.134Z,5.40
2023-04-26T03:08:10.132Z,5.60
2023-04-26T03:09:10.101Z,5.80
2023-04-26T03:10:10.120Z,5.80
2023-04-26T03:11:10.074Z,5.10
2023-04-26T03:12:10.164Z,6.30
2023-04-26T03:13:10.051Z,6.40
2023-04-26T03:14:10.080Z,6.30
2023-04-26T03:15:10.042Z,5.60
2023-04-26T03:16:10.051Z,6.10
2023-04-26T03:17:10.035Z,5.90
2023-04-26T03:18:10.050Z,5.70
2023-04-26T03:19:10.023Z,5.70
2023-04-26T03:20:09.994Z,5.10
2023-04-26T03:21:09.965Z,5.60
2023-04-26T03:22:09.979Z,5.50
2023-04-26T03:23:09.954Z,5.80
2023-04-26T03:24:09.954Z,5.30
2023-04-26T03:25:09.951Z,5.50
2023-04-26T03:26:09.924Z,6.00
2023-04-26T03:27:09.949Z,5.70
2023-04-26T03:28:09.991Z,5.80
2023-04-26T03:29:09.978Z,5.80
2023-04-26T03:30:09.956Z,5.30
2023-04-26T03:31:10.051Z,5.80
2023-04-26T03:32:09.986Z,6.10
2023-04-26T03:33:09.884Z,5.10
2023-04-26T03:34:09.907Z,5.50
2023-04-26T03:35:09.850Z,6.00
2023-04-26T03:36:09.823Z,5.90
2023-04-26T03:37:09.847Z,6.00
2023-04-26T03:38:09.823Z,5.90
2023-04-26T03:39:09.783Z,6.20
2023-04-26T03:40:09.876Z,5.70
2023-04-26T03:41:09.777Z,6.20
2023-04-26T03:42:09.826Z,5.90
2023-04-26T03:43:09.739Z,5.40
2023-04-26T03:44:09.842Z,6.10
2023-04-26T03:45:09.717Z,6.60
2023-04-26T03:46:09.798Z,6.20
2023-04-26T03:47:09.779Z,6.70
2023-04-26T03:48:09.773Z,6.50
2023-04-26T03:49:09.700Z,6.50
2023-04-26T03:50:09.763Z,6.40
2023-04-26T03:51:09.664Z,6.60
2023-04-26T03:52:09.696Z,6.60
2023-04-26T03:53:09.648Z,6.90
2023-04-26T03:54:09.759Z,6.70
2023-04-26T03:55:09.617Z,6.40
2023-04-26T03:56:09.701Z,6.30
2023-04-26T03:57:09.600Z,7.20
2023-04-26T03:58:09.594Z,6.80
2023-04-26T03:59:09.569Z,6.80
2023-04-26T04:00:09.609Z,6.70
2023-04-26T04:01:09.556Z,7.90
2023-04-26T04:02:09.709Z,7.00
2023-04-26T04:03:09.784Z,7.30
2023-04-26T04:04:10.475Z,7.80
2023-04-26T04:05:09.639Z,7.70
2023-04-26T04:06:09.704Z,7.20
2023-04-26T04:07:09.505Z,7.70
2023-04-26T04:08:09.496Z,8.30
2023-04-26T04:09:09.470Z,8.10
2023-04-26T04:10:09.680Z,8.20
2023-04-26T04:11:09.448Z,7.80
2023-04-26T04:12:09.476Z,7.80
2023-04-26T04:13:09.429Z,9.20
2023-04-26T04:14:09.492Z,8.20
2023-04-26T04:15:09.407Z,8.30
2023-04-26T04:16:09.439Z,9.00
2023-04-26T04:17:09.400Z,9.50
2023-04-26T04:18:09.608Z,8.60
2023-04-26T04:19:09.416Z,9.20
2023-04-26T04:20:09.365Z,9.30
2023-04-26T04:21:09.337Z,9.10
2023-04-26T04:22:09.362Z,8.60
2023-04-26T04:23:09.320Z,8.10
2023-04-26T04:24:09.324Z,7.90
2023-04-26T04:25:09.328Z,8.00
2023-04-26T04:26:09.296Z,8.30
2023-04-26T04:27:09.291Z,9.00
2023-04-26T04:28:09.309Z,8.60
2023-04-26T04:29:09.431Z,8.10
2023-04-26T04:30:09.287Z,8.10
2023-04-26T04:31:09.291Z,8.80
2023-04-26T04:32:09.369Z,8.60
2023-04-26T04:33:09.361Z,8.30
2023-04-26T04:34:09.221Z,9.20
2023-04-26T04:35:09.197Z,8.20
2023-04-26T04:36:09.204Z,7.80
2023-04-26T04:37:09.179Z,8.50
2023-04-26T04:38:09.234Z,8.10
2023-04-26T04:39:09.147Z,8.90
2023-04-26T04:41:09.129Z,9.00
2023-04-26T04:42:09.157Z,8.80
2023-04-26T04:43:09.135Z,8.90
2023-04-26T04:44:09.160Z,8.60
2023-04-26T04:45:09.077Z,9.40
2023-04-26T04:46:11.298Z,9.00
2023-04-26T04:47:09.256Z,8.70
2023-04-26T04:48:09.456Z,8.10
2023-04-26T04:49:09.161Z,8.20
2023-04-26T04:50:09.080Z,8.40
2023-04-26T04:51:09.084Z,8.90
2023-04-26T04:52:09.073Z,8.60
2023-04-26T04:53:09.032Z,8.20
2023-04-26T04:54:09.113Z,8.40
2023-04-26T04:55:09.082Z,9.50
2023-04-26T04:56:09.025Z,8.60
2023-04-26T04:57:09.110Z,9.10
2023-04-26T04:58:09.009Z,8.90
2023-04-26T04:59:08.942Z,8.40
2023-04-26T05:00:08.946Z,8.80
2023-04-26T05:01:08.920Z,8.00
2023-04-26T05:02:09.017Z,8.30
2023-04-26T05:03:09.019Z,9.00
2023-04-26T05:04:09.079Z,8.50
2023-04-26T05:05:09.042Z,8.10
2023-04-26T05:06:08.899Z,9.40
2023-04-26T05:07:08.871Z,9.10
2023-04-26T05:08:08.914Z,8.80
2023-04-26T05:09:08.871Z,8.50
2023-04-26T05:10:08.835Z,8.80
2023-04-26T05:11:08.842Z,9.10
2023-04-26T05:12:08.877Z,8.50
2023-04-26T05:13:08.830Z,8.50
2023-04-26T05:14:08.788Z,9.40
2023-04-26T05:15:08.822Z,8.60
2023-04-26T05:16:08.793Z,8.70
2023-04-26T05:17:08.751Z,8.80
2023-04-26T05:18:08.905Z,9.00
2023-04-26T05:19:09.753Z,9.10
2023-04-26T05:20:08.790Z,8.50
2023-04-26T05:21:08.702Z,9.00
2023-04-26T05:22:08.731Z,8.80
2023-04-26T05:23:08.704Z,9.20
2023-04-26T05:24:08.719Z,9.40
2023-04-26T05:25:08.683Z,8.90
2023-04-26T05:26:08.676Z,9.00
2023-04-26T05:27:08.649Z,8.70
2023-04-26T05:28:08.668Z,8.40
2023-04-26T05:29:08.620Z,8.70
2023-04-26T05:30:08.690Z,8.70
2023-04-26T05:31:10.721Z,8.80
2023-04-26T05:32:08.957Z,9.00
2023-04-26T05:33:08.683Z,9.60
2023-04-26T05:34:08.589Z,9.80
2023-04-26T05:35:08.620Z,9.80
2023-04-26T05:36:08.621Z,10.20
2023-04-26T05:37:08.590Z,10.40
2023-04-26T05:38:08.768Z,8.70
2023-04-26T05:39:08.574Z,10.00
2023-04-26T05:40:08.525Z,10.10
2023-04-26T05:41:08.504Z,9.50
2023-04-26T05:42:08.499Z,9.70
2023-04-26T05:43:08.516Z,9.60
2023-04-26T05:44:08.469Z,9.50
2023-04-26T05:45:08.477Z,10.00
2023-04-26T05:46:08.568Z,9.50
2023-04-26T05:47:08.454Z,9.50
2023-04-26T05:48:08.564Z,9.60
2023-04-26T05:49:08.424Z,9.80
2023-04-26T05:50:08.830Z,9.80
2023-04-26T05:51:08.420Z,10.30
2023-04-26T05:52:08.410Z,9.80
2023-04-26T05:53:08.400Z,10.00
2023-04-26T05:54:08.396Z,9.70
2023-04-26T05:55:08.344Z,9.70
2023-04-26T05:56:08.331Z,9.80
2023-04-26T05:57:08.362Z,10.20
2023-04-26T05:58:08.363Z,9.90
2023-04-26T05:59:08.326Z,9.60
2023-04-26T06:00:08.451Z,9.90
2023-04-26T06:01:08.284Z,9.60
2023-04-26T06:02:08.325Z,9.70
2023-04-26T06:03:08.571Z,9.80
2023-04-26T06:04:08.656Z,9.60
2023-04-26T06:05:08.550Z,9.20
2023-04-26T06:06:08.243Z,9.40
2023-04-26T06:07:08.261Z,9.00
2023-04-26T06:08:08.516Z,8.80
2023-04-26T06:09:08.270Z,9.40
2023-04-26T06:10:08.181Z,9.00
2023-04-26T06:11:08.171Z,9.50
2023-04-26T06:12:08.195Z,8.70
2023-04-26T06:13:08.173Z,25.50
2023-04-26T06:14:14.388Z,8.90
2023-04-26T06:15:09.474Z,8.70
2023-04-26T06:16:08.151Z,8.50
2023-04-26T06:17:08.184Z,9.20
2023-04-26T06:18:08.169Z,9.00
2023-04-26T06:19:08.099Z,8.50
2023-04-26T06:20:08.127Z,9.30
2023-04-26T06:21:08.064Z,8.90
2023-04-26T06:22:08.101Z,10.30
2023-04-26T06:23:08.080Z,9.70
2023-04-26T06:24:08.196Z,8.90
2023-04-26T06:25:08.057Z,9.10
2023-04-26T06:26:08.262Z,9.50
2023-04-26T06:27:08.010Z,9.10
2023-04-26T06:28:08.075Z,8.70
2023-04-26T06:29:08.000Z,9.20
2023-04-26T06:30:08.006Z,8.40
2023-04-26T06:31:08.043Z,9.30
2023-04-26T06:32:08.006Z,8.50
2023-04-26T06:33:08.019Z,8.30
2023-04-26T06:34:08.576Z,8.80
2023-04-26T06:35:07.920Z,8.40
2023-04-26T06:36:07.909Z,8.10
2023-04-26T06:37:07.900Z,8.80
2023-04-26T06:38:07.889Z,9.00
2023-04-26T06:39:08.091Z,8.80
2023-04-26T06:40:08.096Z,8.80
2023-04-26T06:41:07.844Z,8.60
2023-04-26T06:42:07.930Z,8.80
2023-04-26T06:43:07.860Z,8.20
2023-04-26T06:44:07.810Z,7.90
2023-04-26T06:45:07.850Z,8.00
2023-04-26T06:46:07.871Z,8.20
2023-04-26T06:47:07.801Z,7.60
2023-04-26T06:48:07.836Z,8.10
2023-04-26T06:49:07.779Z,8.60
2023-04-26T06:50:07.774Z,8.30
2023-04-26T06:51:07.752Z,7.60
2023-04-26T06:52:09.347Z,7.80
2023-04-26T06:53:07.772Z,7.70
2023-04-26T06:54:07.859Z,7.50
2023-04-26T06:55:07.704Z,7.90
2023-04-26T06:56:07.750Z,8.30
2023-04-26T06:57:07.678Z,7.50
2023-04-26T06:58:07.769Z,8.00
2023-04-26T06:59:07.652Z,7.60
2023-04-26T07:00:07.924Z,7.70
2023-04-26T07:01:07.628Z,8.00
2023-04-26T07:02:07.688Z,7.90
2023-04-26T07:03:07.791Z,8.20
2023-04-26T07:04:07.916Z,8.50
2023-04-26T07:05:07.727Z,8.50
2023-04-26T07:06:07.578Z,7.90
2023-04-26T07:07:07.591Z,8.70
2023-04-26T07:08:07.693Z,8.50
2023-04-26T07:09:07.538Z,8.10
2023-04-26T07:10:07.575Z,6.90
2023-04-26T07:11:07.522Z,7.30
2023-04-26T07:12:07.739Z,7.80
2023-04-26T07:13:09.369Z,6.90
2023-04-26T07:14:07.548Z,8.00
2023-04-26T07:15:07.537Z,7.50
2023-04-26T07:16:07.685Z,7.80
2023-04-26T07:17:07.567Z,7.60
2023-04-26T07:18:07.470Z,8.00
2023-04-26T07:19:07.439Z,7.90
2023-04-26T07:20:07.507Z,8.60
2023-04-26T07:21:07.491Z,7.80
2023-04-26T07:22:07.458Z,8.30
2023-04-26T07:23:07.477Z,7.80
2023-04-26T07:24:07.530Z,7.70
2023-04-26T07:25:07.374Z,7.60
2023-04-26T07:26:07.545Z,6.60
2023-04-26T07:27:07.387Z,7.20
2023-04-26T07:28:07.582Z,7.00
2023-04-26T07:29:07.376Z,7.00
2023-04-26T07:30:07.478Z,7.00
2023-04-26T07:31:09.586Z,7.00
2023-04-26T07:32:07.483Z,7.10
2023-04-26T07:33:07.382Z,6.50
2023-04-26T07:34:07.725Z,7.20
2023-04-26T07:35:07.285Z,6.80
2023-04-26T07:36:07.320Z,6.80
2023-04-26T07:37:07.246Z,7.10
2023-04-26T07:38:07.531Z,7.70
2023-04-26T07:39:07.218Z,7.00
2023-04-26T07:40:07.507Z,8.00
2023-04-26T07:41:07.206Z,7.00
2023-04-26T07:42:07.349Z,7.90
2023-04-26T07:43:07.177Z,7.70
2023-04-26T07:44:07.172Z,7.40
2023-04-26T07:45:07.162Z,7.60
2023-04-26T07:46:07.254Z,8.30
2023-04-26T07:47:07.203Z,8.20
2023-04-26T07:48:07.202Z,8.30
2023-04-26T07:49:07.105Z,8.60
2023-04-26T07:50:07.112Z,8.90
2023-04-26T07:51:07.090Z,9.00
2023-04-26T07:52:07.176Z,8.10
2023-04-26T07:53:07.072Z,8.70
2023-04-26T07:54:07.134Z,8.30
2023-04-26T07:55:07.050Z,8.30
2023-04-26T07:56:07.117Z,8.20
2023-04-26T07:57:07.175Z,8.20
2023-04-26T07:58:07.044Z,8.10
2023-04-26T07:59:07.013Z,8.80
2023-04-26T08:00:07.131Z,8.10
2023-04-26T08:01:06.999Z,8.50
2023-04-26T08:02:07.116Z,7.90
2023-04-26T08:03:07.194Z,8.10
2023-04-26T08:04:07.316Z,8.20
2023-04-26T08:05:07.126Z,7.50
2023-04-26T08:06:07.089Z,8.30
2023-04-26T08:07:06.927Z,7.60
2023-04-26T08:08:07.011Z,8.20
2023-04-26T08:09:06.905Z,8.00
2023-04-26T08:10:07.054Z,8.40
2023-04-26T08:11:06.919Z,7.80
2023-04-26T08:12:06.980Z,8.10
2023-04-26T08:13:06.855Z,7.60
2023-04-26T08:14:06.960Z,7.60
2023-04-26T08:15:06.847Z,7.70
2023-04-26T08:16:06.874Z,7.80
2023-04-26T08:17:06.961Z,7.10
2023-04-26T08:18:06.899Z,7.00
2023-04-26T08:19:06.805Z,7.30
2023-04-26T08:20:07.024Z,6.60
2023-04-26T08:21:06.767Z,6.20
2023-04-26T08:22:06.854Z,6.80
2023-04-26T08:23:06.754Z,7.60
2023-04-26T08:24:06.740Z,7.00
2023-04-26T08:25:06.782Z,6.80
2023-04-26T08:26:06.813Z,6.50
2023-04-26T08:27:06.718Z,6.80
2023-04-26T08:28:06.742Z,6.90
2023-04-26T08:29:06.689Z,7.20
2023-04-26T08:30:06.793Z,7.70
2023-04-26T08:31:06.672Z,5.80
2023-04-26T08:32:06.859Z,4.80
2023-04-26T08:33:06.713Z,4.80
2023-04-26T08:34:06.697Z,5.00
2023-04-26T08:35:06.631Z,5.10
2023-04-26T08:36:06.694Z,4.80
2023-04-26T08:37:06.610Z,5.60
2023-04-26T08:38:06.621Z,5.80
2023-04-26T08:39:06.584Z,5.50
2023-04-26T08:40:06.733Z,5.20
2023-04-26T08:41:06.550Z,5.30
2023-04-26T08:42:06.730Z,6.00
2023-04-26T08:43:06.532Z,5.40
2023-04-26T08:44:06.569Z,5.30
2023-04-26T08:45:06.511Z,5.00
2023-04-26T08:46:06.778Z,5.10
2023-04-26T08:47:06.510Z,5.40
2023-04-26T08:48:06.633Z,5.30
2023-04-26T08:49:06.478Z,5.90
2023-04-26T08:50:06.622Z,6.60
2023-04-26T08:51:06.460Z,6.00
2023-04-26T08:52:06.735Z,5.90
2023-04-26T08:53:06.467Z,6.10
2023-04-26T08:54:06.492Z,5.90
2023-04-26T08:55:06.407Z,6.30
2023-04-26T08:56:06.537Z,5.90
2023-04-26T08:57:06.398Z,6.30
2023-04-26T08:58:06.444Z,6.10
2023-04-26T08:59:06.355Z,6.00
2023-04-26T09:00:06.454Z,5.60
2023-04-26T09:01:06.370Z,6.10
2023-04-26T09:02:06.406Z,5.80
2023-04-26T09:03:06.473Z,6.00
2023-04-26T09:04:06.626Z,4.60
2023-04-26T09:05:06.400Z,5.40
2023-04-26T09:06:06.494Z,5.10
2023-04-26T09:07:06.324Z,5.20
2023-04-26T09:08:06.299Z,4.80
2023-04-26T09:09:06.272Z,5.70
2023-04-26T09:10:06.253Z,5.10
2023-04-26T09:11:06.237Z,5.20
2023-04-26T09:12:06.318Z,5.10
2023-04-26T09:13:06.201Z,4.70
2023-04-26T09:14:06.241Z,5.00
2023-04-26T09:15:06.219Z,5.10
2023-04-26T09:16:06.578Z,4.70
2023-04-26T09:17:06.173Z,4.80
2023-04-26T09:18:06.265Z,4.40
2023-04-26T09:19:06.173Z,3.50
2023-04-26T09:20:07.906Z,4.20
2023-04-26T09:21:06.144Z,4.30
2023-04-26T09:22:06.179Z,4.50
2023-04-26T09:23:06.109Z,4.30
2023-04-26T09:24:06.093Z,4.10
2023-04-26T09:25:06.081Z,4.20
2023-04-26T09:26:06.223Z,4.40
2023-04-26T09:27:06.066Z,4.20
2023-04-26T09:28:06.049Z,4.20
2023-04-26T09:29:06.041Z,3.30
2023-04-26T09:30:06.061Z,3.50
2023-04-26T09:31:06.045Z,3.50
2023-04-26T09:32:06.071Z,3.60
2023-04-26T09:33:06.050Z,3.40
2023-04-26T09:34:07.142Z,3.90
2023-04-26T09:35:05.986Z,3.60
2023-04-26T09:36:06.311Z,2.70
2023-04-26T09:37:05.984Z,2.40
2023-04-26T09:38:11.001Z,2.30
2023-04-26T09:39:06.937Z,2.50
2023-04-26T09:40:05.992Z,3.60
2023-04-26T09:41:05.918Z,3.60
2023-04-26T09:42:06.165Z,4.40
2023-04-26T09:43:05.878Z,4.30
2023-04-26T09:44:06.289Z,3.60
2023-04-26T09:45:05.886Z,2.90
2023-04-26T09:46:05.902Z,3.20
2023-04-26T09:47:05.892Z,2.90
2023-04-26T09:48:05.949Z,3.10
2023-04-26T09:49:05.833Z,3.40
2023-04-26T09:50:05.826Z,3.30
2023-04-26T09:51:05.785Z,2.80
2023-04-26T09:52:06.092Z,2.90
2023-04-26T09:53:05.777Z,3.30
2023-04-26T09:54:05.768Z,3.00
2023-04-26T09:55:05.780Z,3.20
2023-04-26T09:56:05.941Z,2.80
2023-04-26T09:57:05.751Z,3.20
2023-04-26T09:58:05.762Z,3.20
2023-04-26T09:59:05.797Z,3.60
2023-04-26T10:00:05.721Z,3.30
2023-04-26T10:01:05.757Z,3.70
2023-04-26T10:02:05.794Z,3.40
2023-04-26T10:03:05.852Z,3.90
2023-04-26T10:04:05.722Z,3.80
2023-04-26T10:05:05.701Z,3.60
2023-04-26T10:06:05.683Z,3.40
2023-04-26T10:07:05.630Z,3.50
2023-04-26T10:08:05.721Z,3.20
2023-04-26T10:09:05.611Z,3.00
2023-04-26T10:10:05.591Z,3.40
2023-04-26T10:11:05.573Z,3.00
2023-04-26T10:12:05.599Z,3.70
2023-04-26T10:13:05.562Z,3.10
2023-04-26T10:14:05.626Z,3.30
2023-04-26T10:15:05.769Z,3.20
2023-04-26T10:16:05.633Z,3.10
2023-04-26T10:17:05.567Z,3.00
2023-04-26T10:18:05.713Z,3.10
2023-04-26T10:19:05.504Z,3.20
2023-04-26T10:20:05.516Z,3.00
2023-04-26T10:21:05.485Z,3.40
2023-04-26T10:22:05.494Z,3.30
2023-04-26T10:23:05.445Z,3.50
2023-04-26T10:24:05.557Z,3.20
2023-04-26T10:25:05.430Z,3.40
2023-04-26T10:26:05.493Z,3.10
2023-04-26T10:27:05.428Z,3.10
2023-04-26T10:28:05.467Z,3.30
2023-04-26T10:29:05.614Z,2.50
2023-04-26T10:30:05.400Z,2.80
2023-04-26T10:31:05.361Z,2.60
2023-04-26T10:32:05.429Z,3.00
2023-04-26T10:33:05.400Z,2.30
2023-04-26T10:34:05.362Z,2.50
2023-04-26T10:35:05.316Z,2.50
2023-04-26T10:36:05.354Z,2.20
2023-04-26T10:37:05.300Z,2.30
2023-04-26T10:38:05.336Z,2.50
2023-04-26T10:39:05.325Z,2.60
2023-04-26T10:40:05.433Z,2.60
2023-04-26T10:41:05.249Z,2.30
2023-04-26T10:42:05.257Z,2.60
2023-04-26T10:43:05.247Z,2.40
2023-04-26T10:44:05.221Z,2.50
2023-04-26T10:45:05.274Z,2.30
2023-04-26T10:46:05.350Z,2.40
2023-04-26T10:47:05.202Z,2.70
2023-04-26T10:48:05.638Z,2.60
2023-04-26T10:49:05.179Z,2.80
2023-04-26T10:50:05.829Z,2.40
2023-04-26T10:51:05.152Z,2.70
2023-04-26T10:52:05.185Z,2.30
2023-04-26T10:53:05.862Z,2.70
2023-04-26T10:54:05.146Z,2.50
2023-04-26T10:55:05.106Z,2.30
2023-04-26T10:56:05.114Z,2.70
2023-04-26T10:57:05.097Z,2.40
2023-04-26T10:58:05.071Z,2.50
2023-04-26T10:59:13.624Z,2.80
2023-04-26T11:00:06.083Z,3.00
2023-04-26T11:01:05.158Z,2.70
2023-04-26T11:02:05.081Z,2.70
2023-04-26T11:03:05.182Z,2.30
2023-04-26T11:04:05.258Z,2.20
2023-04-26T11:05:05.054Z,2.20
2023-04-26T11:06:05.074Z,2.30
2023-04-26T11:07:04.976Z,2.50
2023-04-26T11:08:05.004Z,2.60
2023-04-26T11:09:04.997Z,3.10
2023-04-26T11:10:05.062Z,2.50
2023-04-26T11:11:05.044Z,2.30
2023-04-26T11:12:05.068Z,2.50
2023-04-26T11:13:04.919Z,2.60
2023-04-26T11:14:05.396Z,2.80
2023-04-26T11:15:05.934Z,2.70
2023-04-26T11:16:04.935Z,2.80
2023-04-26T11:17:04.903Z,2.60
2023-04-26T11:18:05.053Z,2.60
2023-04-26T11:19:04.852Z,2.20
2023-04-26T11:20:04.880Z,2.00
2023-04-26T11:21:04.842Z,2.00
2023-04-26T11:22:04.829Z,2.00
2023-04-26T11:23:04.815Z,2.20
2023-04-26T11:24:04.857Z,2.50
2023-04-26T11:25:04.792Z,2.30
2023-04-26T11:26:04.863Z,2.20
2023-04-26T11:27:05.018Z,2.20
2023-04-26T11:28:04.785Z,2.00
2023-04-26T11:29:04.800Z,1.90
2023-04-26T11:30:04.870Z,1.90
2023-04-26T11:31:04.795Z,4.50
2023-04-26T11:32:04.806Z,2.30
2023-04-26T11:33:04.743Z,2.60
2023-04-26T11:34:04.704Z,2.10
2023-04-26T11:35:04.687Z,1.80
2023-04-26T11:36:04.715Z,2.00
2023-04-26T11:37:05.067Z,1.80
2023-04-26T11:38:04.731Z,2.10
2023-04-26T11:39:04.746Z,1.90
2023-04-26T11:40:04.741Z,2.00
2023-04-26T11:41:04.637Z,1.60
2023-04-26T11:42:04.661Z,2.00
2023-04-26T11:43:04.661Z,1.70
2023-04-26T11:44:04.668Z,1.80
2023-04-26T11:45:04.648Z,1.70
2023-04-26T11:46:04.850Z,2.10
2023-04-26T11:47:04.732Z,2.20
2023-04-26T11:48:04.787Z,1.90
2023-04-26T11:49:04.601Z,2.20
2023-04-26T11:50:04.601Z,1.90
2023-04-26T11:51:04.525Z,2.20
2023-04-26T11:52:04.576Z,2.00
2023-04-26T11:53:04.645Z,2.00
2023-04-26T11:54:04.540Z,2.10
2023-04-26T11:55:04.521Z,2.10
2023-04-26T11:56:04.506Z,2.20
2023-04-26T11:57:04.521Z,2.10
2023-04-26T11:58:04.549Z,2.20
2023-04-26T11:59:04.475Z,2.10
2023-04-26T12:00:04.962Z,2.00
2023-04-26T12:01:04.437Z,2.10
2023-04-26T12:02:04.672Z,2.30
2023-04-26T12:03:04.623Z,2.00
2023-04-26T12:04:04.544Z,2.20
2023-04-26T12:05:04.468Z,2.20
2023-04-26T12:06:04.419Z,2.70
2023-04-26T12:07:04.385Z,2.20
2023-04-26T12:08:04.530Z,2.20
2023-04-26T12:09:04.366Z,2.20
2023-04-26T12:10:04.448Z,2.40
2023-04-26T12:11:04.363Z,2.20
2023-04-26T12:12:04.353Z,1.90
2023-04-26T12:13:04.384Z,2.10
2023-04-26T12:14:04.384Z,2.50
2023-04-26T12:15:04.297Z,2.00
2023-04-26T12:16:07.352Z,2.00
2023-04-26T12:17:05.359Z,2.20
2023-04-26T12:18:04.380Z,2.30
2023-04-26T12:19:04.266Z,2.40
2023-04-26T12:20:04.307Z,2.60
2023-04-26T12:21:04.242Z,2.20
2023-04-26T12:22:04.268Z,2.20
2023-04-26T12:23:04.219Z,2.50
2023-04-26T12:24:04.391Z,2.30
2023-04-26T12:25:04.208Z,2.40
2023-04-26T12:26:04.220Z,2.90
2023-04-26T12:27:04.197Z,2.60
2023-04-26T12:28:04.235Z,2.80
2023-04-26T12:29:04.206Z,2.60
2023-04-26T12:30:05.205Z,2.60
2023-04-26T12:31:04.174Z,2.40
2023-04-26T12:32:04.499Z,2.20
2023-04-26T12:34:04.156Z,2.30
2023-04-26T12:35:04.106Z,2.00
2023-04-26T12:36:04.174Z,1.80
2023-04-26T12:37:04.162Z,2.10
2023-04-26T12:38:04.074Z,2.30
2023-04-26T12:39:04.147Z,2.20
2023-04-26T12:40:04.657Z,1.90
2023-04-26T12:41:04.053Z,2.40
2023-04-26T12:42:04.367Z,2.30
2023-04-26T12:43:04.033Z,2.40
2023-04-26T12:44:04.063Z,2.20
2023-04-26T12:45:04.015Z,2.30
2023-04-26T12:46:04.075Z,2.50
2023-04-26T12:47:03.993Z,2.30
2023-04-26T12:48:04.015Z,2.20
2023-04-26T12:49:03.961Z,2.50
2023-04-26T12:50:03.981Z,2.60
2023-04-26T12:51:03.963Z,2.10
2023-04-26T12:52:03.973Z,2.20
2023-04-26T12:53:03.930Z,2.60
2023-04-26T12:54:03.942Z,3.00
2023-04-26T12:55:03.903Z,2.80
2023-04-26T12:56:03.919Z,3.20
2023-04-26T12:57:03.905Z,3.10
2023-04-26T12:58:03.952Z,2.90
2023-04-26T12:59:03.869Z,3.00
2023-04-26T13:00:03.872Z,3.50
2023-04-26T13:01:03.883Z,3.80
2023-04-26T13:02:03.909Z,3.60
2023-04-26T13:03:04.037Z,4.10
2023-04-26T13:04:04.102Z,4.20
2023-04-26T13:05:03.882Z,4.30
2023-04-26T13:06:03.987Z,4.70
2023-04-26T13:07:04.021Z,4.20
2023-04-26T13:08:03.845Z,4.40
2023-04-26T13:09:03.881Z,4.50
2023-04-26T13:10:03.819Z,4.50
2023-04-26T13:11:03.737Z,4.60
2023-04-26T13:12:03.846Z,4.40
2023-04-26T13:13:03.716Z,4.30
2023-04-26T13:14:03.726Z,4.40
2023-04-26T13:15:03.715Z,4.10
2023-04-26T13:16:03.786Z,4.20
2023-04-26T13:17:03.685Z,4.20
2023-04-26T13:18:03.736Z,4.20
2023-04-26T13:19:03.772Z,4.20
2023-04-26T13:20:03.653Z,4.20